createdAt,value
2023-02-07T00:00:00.281Z,0.7
2023-02-07T00:05:00.184Z,0.7
2023-02-07T00:10:00.260Z,0.6
2023-02-07T00:15:00.188Z,0.6
2023-02-07T00:20:00.212Z,0.6
2023-02-07T00:25:00.234Z,0.5
2023-02-07T00:30:00.287Z,0.5
2023-02-07T00:35:00.235Z,0.5
2023-02-07T00:40:00.261Z,0.4
2023-02-07T00:45:00.294Z,0.4
2023-02-07T00:50:00.256Z,0.4
2023-02-07T00:55:00.243Z,0.4
2023-02-07T01:00:00.283Z,0.3
2023-02-07T01:05:00.282Z,0.3
2023-02-07T01:10:00.280Z,0.2
2023-02-07T01:15:00.235Z,0.2
2023-02-07T01:20:00.445Z,0.2
2023-02-07T01:25:00.147Z,0.2
2023-02-07T01:30:00.303Z,0.2
2023-02-07T01:35:00.251Z,0.2
2023-02-07T01:40:00.159Z,0.3
2023-02-07T01:45:00.226Z,0.3
2023-02-07T01:50:00.241Z,0.3
2023-02-07T01:55:00.143Z,0.3
2023-02-07T02:00:00.263Z,0.2
2023-02-07T02:05:00.261Z,0.2
2023-02-07T02:10:00.288Z,0.2
2023-02-07T02:15:00.240Z,0.2
2023-02-07T02:20:00.269Z,0.2
2023-02-07T02:25:00.149Z,0.1
2023-02-07T02:30:00.241Z,0.1
2023-02-07T02:35:00.234Z,0
2023-02-07T02:40:00.273Z,0
2023-02-07T02:45:00.134Z,0
2023-02-07T02:50:00.239Z,0
2023-02-07T02:55:00.142Z,0
2023-02-07T03:00:00.301Z,0
2023-02-07T03:05:00.295Z,0
2023-02-07T03:10:00.235Z,-0.1
2023-02-07T03:15:00.218Z,-0.1
2023-02-07T03:20:00.255Z,-0.1
2023-02-07T03:25:00.152Z,-0.2
2023-02-07T03:30:00.296Z,-0.2
2023-02-07T03:35:00.134Z,-0.2
2023-02-07T03:40:00.242Z,-0.3
2023-02-07T03:45:00.127Z,-0.3
2023-02-07T03:50:00.251Z,-0.3
2023-02-07T03:55:00.229Z,-0.3
2023-02-07T04:00:00.274Z,-0.4
2023-02-07T04:05:00.248Z,-0.4
2023-02-07T04:10:00.881Z,-0.4
2023-02-07T04:15:00.303Z,-0.5
2023-02-07T04:20:00.332Z,-0.5
2023-02-07T04:25:00.351Z,-0.5
2023-02-07T04:30:00.246Z,-0.6
2023-02-07T04:35:00.302Z,-0.6
2023-02-07T04:40:00.270Z,-0.6
2023-02-07T04:45:00.242Z,-0.6
2023-02-07T04:50:00.275Z,-0.7
2023-02-07T04:55:00.272Z,-0.7
2023-02-07T05:00:00.298Z,-0.7
2023-02-07T05:05:00.233Z,-0.8
2023-02-07T05:10:00.310Z,-0.8
2023-02-07T05:15:00.291Z,-0.8
2023-02-07T05:20:00.272Z,-0.8
2023-02-07T05:25:00.297Z,-0.9
2023-02-07T05:30:00.310Z,-0.9
2023-02-07T05:35:00.252Z,-1
2023-02-07T05:40:00.244Z,-1
2023-02-07T05:45:00.286Z,-1.1
2023-02-07T05:50:00.308Z,-1.2
2023-02-07T05:55:00.295Z,-1.2
2023-02-07T06:00:00.233Z,-1.2
2023-02-07T06:05:00.245Z,-1.2
2023-02-07T06:10:00.266Z,-1.2
2023-02-07T06:15:00.343Z,-1.3
2023-02-07T06:20:00.255Z,-1.3
2023-02-07T06:25:00.264Z,-1.3
2023-02-07T06:30:00.240Z,-1.3
2023-02-07T06:35:00.240Z,-1.3
2023-02-07T06:40:00.306Z,-1.3
2023-02-07T06:45:00.363Z,-1.3
2023-02-07T06:50:00.176Z,-1.4
2023-02-07T06:55:00.257Z,-1.4
2023-02-07T07:00:05.219Z,-1.4
2023-02-07T07:05:00.267Z,-1.4
2023-02-07T07:10:00.467Z,-1.5
2023-02-07T07:15:00.171Z,-1.5
2023-02-07T07:20:00.302Z,-1.5
2023-02-07T07:25:00.313Z,-1.5
2023-02-07T07:30:00.276Z,-1.5
2023-02-07T07:35:00.331Z,-1.5
2023-02-07T07:40:00.294Z,-1.5
2023-02-07T07:45:00.246Z,-1.5
2023-02-07T07:50:00.258Z,-1.5
2023-02-07T07:55:00.259Z,-1.5
2023-02-07T08:00:00.338Z,-1.5
2023-02-07T08:05:00.179Z,-1.4
2023-02-07T08:10:00.265Z,-1.4
2023-02-07T08:15:05.158Z,-1.4
2023-02-07T08:20:00.249Z,-1.3
2023-02-07T08:25:00.270Z,-1.3
2023-02-07T08:30:00.511Z,-1.3
2023-02-07T08:35:00.292Z,-1.2
2023-02-07T08:40:00.272Z,-1.2
2023-02-07T08:45:00.322Z,-1.2
2023-02-07T08:50:00.196Z,-1.2
2023-02-07T08:55:00.317Z,-1.1
2023-02-07T09:00:00.296Z,-1.1
2023-02-07T09:05:00.229Z,-1
2023-02-07T09:10:00.292Z,-1
2023-02-07T09:15:00.178Z,-1
2023-02-07T09:20:00.296Z,-0.9
2023-02-07T09:25:00.299Z,-0.8
2023-02-07T09:30:00.323Z,-0.8
2023-02-07T09:35:00.272Z,-0.8
2023-02-07T09:40:00.189Z,-0.7
2023-02-07T09:45:00.499Z,-0.7
2023-02-07T09:50:00.248Z,-0.6
2023-02-07T09:55:00.234Z,-0.5
2023-02-07T10:00:00.288Z,-0.4
2023-02-07T10:05:00.265Z,-0.3
2023-02-07T10:10:00.910Z,-0.3
2023-02-07T10:15:00.188Z,-0.2
2023-02-07T10:20:05.284Z,-0.1
2023-02-07T10:25:00.272Z,0
2023-02-07T10:30:00.254Z,0
2023-02-07T10:35:00.233Z,0
2023-02-07T10:40:00.308Z,0.1
2023-02-07T10:45:00.287Z,0.2
2023-02-07T10:50:00.337Z,0.4
2023-02-07T10:55:00.253Z,0.4
2023-02-07T11:00:05.182Z,0.5
2023-02-07T11:05:00.226Z,0.7
2023-02-07T11:10:00.274Z,0.8
2023-02-07T11:15:00.317Z,0.9
2023-02-07T11:20:00.259Z,1
2023-02-07T11:25:00.315Z,1.1
2023-02-07T11:30:00.270Z,1.2
2023-02-07T11:35:00.186Z,1.3
2023-02-07T11:40:00.272Z,1.4
2023-02-07T11:45:00.250Z,1.5
2023-02-07T11:50:00.270Z,1.6
2023-02-07T11:55:00.287Z,1.7
2023-02-07T12:00:05.190Z,1.8
2023-02-07T12:05:00.246Z,1.9
2023-02-07T12:10:00.292Z,2
2023-02-07T12:15:00.260Z,2.1
2023-02-07T12:20:02.308Z,2.2
2023-02-07T12:25:00.290Z,2.2
2023-02-07T12:30:00.245Z,2.3
2023-02-07T12:35:00.301Z,2.4
2023-02-07T12:40:00.279Z,2.4
2023-02-07T12:45:00.280Z,2.4
2023-02-07T12:50:00.256Z,2.5
2023-02-07T12:55:00.232Z,2.5
2023-02-07T13:00:00.256Z,2.6
2023-02-07T13:05:00.238Z,2.6
2023-02-07T13:10:00.732Z,2.7
2023-02-07T13:15:00.218Z,2.7
2023-02-07T13:20:00.294Z,2.7
2023-02-07T13:25:00.240Z,2.8
2023-02-07T13:30:00.308Z,2.8
2023-02-07T13:35:00.172Z,2.9
2023-02-07T13:40:00.280Z,2.9
2023-02-07T13:45:00.183Z,2.9
2023-02-07T13:50:00.278Z,3
2023-02-07T13:55:00.290Z,3.1
2023-02-07T14:00:00.327Z,3.1
2023-02-07T14:05:00.234Z,3.2
2023-02-07T14:10:00.278Z,3.2
2023-02-07T14:15:02.893Z,3.3
2023-02-07T14:20:00.250Z,3.3
2023-02-07T14:25:00.193Z,3.4
2023-02-07T14:30:00.309Z,3.4
2023-02-07T14:35:00.206Z,3.4
2023-02-07T14:40:01.218Z,3.5
2023-02-07T14:45:00.238Z,3.5
2023-02-07T14:50:00.384Z,3.6
2023-02-07T14:55:00.240Z,3.6
2023-02-07T15:00:00.300Z,3.6
2023-02-07T15:05:00.303Z,3.6
2023-02-07T15:10:00.288Z,3.6
2023-02-07T15:15:00.216Z,3.6
2023-02-07T15:20:00.277Z,3.6
2023-02-07T15:25:00.243Z,3.7
2023-02-07T15:30:00.263Z,3.7
2023-02-07T15:35:00.251Z,3.7
2023-02-07T15:40:00.283Z,3.7
2023-02-07T15:45:00.295Z,3.8
2023-02-07T15:50:00.296Z,3.8
2023-02-07T15:55:00.221Z,3.8
2023-02-07T16:00:00.237Z,3.7
2023-02-07T16:05:00.252Z,3.7
2023-02-07T16:10:00.263Z,3.6
2023-02-07T16:15:00.254Z,3.6
2023-02-07T16:20:00.226Z,3.5
2023-02-07T16:25:00.296Z,3.4
2023-02-07T16:30:00.314Z,3.3
2023-02-07T16:35:00.542Z,3.3
2023-02-07T16:40:00.393Z,3.1
2023-02-07T16:45:00.227Z,3.1
2023-02-07T16:50:00.284Z,3.1
2023-02-07T16:55:00.204Z,3
2023-02-07T17:00:00.305Z,2.9
2023-02-07T17:05:00.223Z,2.8
2023-02-07T17:10:00.287Z,2.7
2023-02-07T17:15:00.341Z,2.7
2023-02-07T17:20:00.287Z,2.6
2023-02-07T17:25:00.289Z,2.5
2023-02-07T17:30:00.343Z,2.4
2023-02-07T17:35:00.216Z,2.3
2023-02-07T17:40:00.213Z,2.2
2023-02-07T17:45:00.257Z,2.1
2023-02-07T17:50:00.276Z,2
2023-02-07T17:55:00.306Z,1.9
2023-02-07T18:00:00.291Z,1.8
2023-02-07T18:05:00.228Z,1.7
2023-02-07T18:10:00.279Z,1.6
2023-02-07T18:15:00.232Z,1.6
2023-02-07T18:20:00.271Z,1.5
2023-02-07T18:25:00.256Z,1.3
2023-02-07T18:30:00.259Z,1.3
2023-02-07T18:35:00.244Z,1.2
2023-02-07T18:40:00.269Z,1.1
2023-02-07T18:45:00.221Z,1
2023-02-07T18:50:00.215Z,0.9
2023-02-07T18:55:00.188Z,0.9
2023-02-07T19:00:00.435Z,0.8
2023-02-07T19:05:00.232Z,0.8
2023-02-07T19:10:00.411Z,0.7
2023-02-07T19:15:00.314Z,0.7
2023-02-07T19:20:00.301Z,0.6
2023-02-07T19:25:00.181Z,0.6
2023-02-07T19:30:00.277Z,0.5
2023-02-07T19:35:00.248Z,0.5
2023-02-07T19:40:00.282Z,0.4
2023-02-07T19:45:00.283Z,0.4
2023-02-07T19:50:00.269Z,0.4
2023-02-07T19:55:00.282Z,0.3
2023-02-07T20:00:00.279Z,0.3
2023-02-07T20:05:00.237Z,0.2
2023-02-07T20:10:00.258Z,0.2
2023-02-07T20:15:00.318Z,0.2
2023-02-07T20:20:00.257Z,0.1
2023-02-07T20:25:00.188Z,0.1
2023-02-07T20:30:00.231Z,0
2023-02-07T20:35:00.253Z,0
2023-02-07T20:40:00.253Z,0
2023-02-07T20:45:00.227Z,0
2023-02-07T20:50:00.260Z,0
2023-02-07T20:55:00.884Z,0
2023-02-07T21:00:00.290Z,-0.1
2023-02-07T21:05:00.304Z,-0.1
2023-02-07T21:10:00.299Z,-0.1
2023-02-07T21:15:00.298Z,-0.2
2023-02-07T21:20:00.418Z,-0.2
2023-02-07T21:25:00.270Z,-0.2
2023-02-07T21:30:00.363Z,-0.2
2023-02-07T21:35:00.192Z,-0.3
2023-02-07T21:40:00.368Z,-0.3
2023-02-07T21:45:00.221Z,-0.3
2023-02-07T21:50:00.291Z,-0.3
2023-02-07T21:55:00.243Z,-0.3
2023-02-07T22:00:00.286Z,-0.4
2023-02-07T22:05:00.140Z,-0.4
2023-02-07T22:10:00.250Z,-0.4
2023-02-07T22:15:00.312Z,-0.4
2023-02-07T22:20:00.258Z,-0.5
2023-02-07T22:25:00.170Z,-0.5
2023-02-07T22:30:00.286Z,-0.6
2023-02-07T22:35:00.178Z,-0.6
2023-02-07T22:40:00.268Z,-0.6
2023-02-07T22:45:00.190Z,-0.7
2023-02-07T22:50:00.256Z,-0.7
2023-02-07T22:55:00.221Z,-0.7
2023-02-07T23:00:00.309Z,-0.8
2023-02-07T23:05:00.130Z,-0.8
2023-02-07T23:10:00.245Z,-0.8
2023-02-07T23:15:00.215Z,-0.8
2023-02-07T23:20:00.246Z,-0.8
2023-02-07T23:25:00.235Z,-0.8
2023-02-07T23:30:00.254Z,-0.9
2023-02-07T23:35:00.179Z,-0.9
2023-02-07T23:40:00.233Z,-0.9
2023-02-07T23:45:00.150Z,-1
2023-02-07T23:50:00.256Z,-1
2023-02-07T23:55:00.189Z,-1
